Map

Track Data

SID SEASON NUMBER BASIN SUBBASIN NAME ISO_TIME NATURE LAT LON WMO_WIND WMO_PRES WMO_AGENCY TRACK_TYPE DIST2LAND LANDFALL IFLAG USA_AGENCY USA_ATCF_ID USA_LAT USA_LON USA_RECORD USA_STATUS USA_WIND USA_PRES USA_SSHS USA_R34_NE USA_R34_SE USA_R34_SW USA_R34_NW USA_R50_NE USA_R50_SE USA_R50_SW USA_R50_NW USA_R64_NE USA_R64_SE USA_R64_SW USA_R64_NW USA_POCI USA_ROCI USA_RMW USA_EYE TOKYO_LAT TOKYO_LON TOKYO_GRADE TOKYO_WIND TOKYO_PRES TOKYO_R50_DIR TOKYO_R50_LONG TOKYO_R50_SHORT TOKYO_R30_DIR TOKYO_R30_LONG TOKYO_R30_SHORT TOKYO_LAND CMA_LAT CMA_LON CMA_CAT CMA_WIND CMA_PRES HKO_LAT HKO_LON HKO_CAT HKO_WIND HKO_PRES NEWDELHI_LAT NEWDELHI_LON NEWDELHI_GRADE NEWDELHI_WIND NEWDELHI_PRES NEWDELHI_CI NEWDELHI_DP NEWDELHI_POCI REUNION_LAT REUNION_LON REUNION_TYPE REUNION_WIND REUNION_PRES REUNION_TNUM REUNION_CI REUNION_RMW REUNION_R34_NE REUNION_R34_SE REUNION_R34_SW REUNION_R34_NW REUNION_R50_NE REUNION_R50_SE REUNION_R50_SW REUNION_R50_NW REUNION_R64_NE REUNION_R64_SE REUNION_R64_SW REUNION_R64_NW BOM_LAT BOM_LON BOM_TYPE BOM_WIND BOM_PRES BOM_TNUM BOM_CI BOM_RMW BOM_R34_NE BOM_R34_SE BOM_R34_SW BOM_R34_NW BOM_R50_NE BOM_R50_SE BOM_R50_SW BOM_R50_NW BOM_R64_NE BOM_R64_SE BOM_R64_SW BOM_R64_NW BOM_ROCI BOM_POCI BOM_EYE BOM_POS_METHOD BOM_PRES_METHOD NADI_LAT NADI_LON NADI_CAT NADI_WIND NADI_PRES WELLINGTON_LAT WELLINGTON_LON WELLINGTON_WIND WELLINGTON_PRES DS824_LAT DS824_LON DS824_STAGE DS824_WIND DS824_PRES TD9636_LAT TD9636_LON TD9636_STAGE TD9636_WIND TD9636_PRES TD9635_LAT TD9635_LON TD9635_WIND TD9635_PRES TD9635_ROCI NEUMANN_LAT NEUMANN_LON NEUMANN_CLASS NEUMANN_WIND NEUMANN_PRES MLC_LAT MLC_LON MLC_CLASS MLC_WIND MLC_PRES USA_GUST BOM_GUST BOM_GUST_PER REUNION_GUST REUNION_GUST_PER USA_SEAHGT USA_SEARAD_NE USA_SEARAD_SE USA_SEARAD_SW USA_SEARAD_NW STORM_SPEED STORM_DIR
2021248N13261 2021 69 EP MM OLAF 2021-09-04 12:00:00 NR 12.6000 -99.3000 PROVISIONAL 413 406 O_____________ nhc_working_bt EP152021 12.6000 -99.3000 DB 20 1009 -3 8 300
2021248N13261 2021 69 EP MM OLAF 2021-09-04 15:00:00 NR 12.8001 -99.6499 PROVISIONAL 406 395 P_____________ EP152021 12.8001 -99.6499 DB 20 1009 -3 8 300
2021248N13261 2021 69 EP MM OLAF 2021-09-04 18:00:00 NR 13.0000 -100.000 PROVISIONAL 398 392 I_____________ nhc_working_bt EP152021 13.0000 -100.000 DB 20 1009 -3 8 300
2021248N13261 2021 69 EP MM OLAF 2021-09-04 21:00:00 NR 13.2000 -100.350 PROVISIONAL 397 381 P_____________ EP152021 13.2000 -100.350 DB 20 1009 -3 8 300
2021248N13261 2021 69 EP MM OLAF 2021-09-05 00:00:00 NR 13.4000 -100.700 PROVISIONAL 384 374 O_____________ nhc_working_bt EP152021 13.4000 -100.700 DB 20 1009 -3 8 299
2021248N13261 2021 69 EP MM OLAF 2021-09-05 03:00:00 NR 13.5850 -101.050 PROVISIONAL 378 367 P_____________ EP152021 13.5850 -101.050 DB 20 1009 -3 8 300
2021248N13261 2021 69 EP MM OLAF 2021-09-05 06:00:00 NR 13.8000 -101.400 PROVISIONAL 372 359 O_____________ nhc_working_bt EP152021 13.8000 -101.400 DB 20 1009 -3 8 306
2021248N13261 2021 69 EP MM OLAF 2021-09-05 09:00:00 NR 14.0850 -101.750 PROVISIONAL 363 341 P_____________ EP152021 14.0850 -101.750 DB 20 1009 -3 9 311
2021248N13261 2021 69 EP MM OLAF 2021-09-05 12:00:00 NR 14.4000 -102.100 PROVISIONAL 341 322 O_____________ nhc_working_bt EP152021 14.4000 -102.100 DB 20 1009 -3 9 312
2021248N13261 2021 69 EP MM OLAF 2021-09-05 15:00:00 NR 14.6925 -102.458 PROVISIONAL 327 315 P_____________ EP152021 14.6925 -102.458 DB 20 1009 -3 9 312
2021248N13261 2021 69 EP MM OLAF 2021-09-05 18:00:00 DS 15.0000 -102.800 PROVISIONAL 315 300 O_____________ nhc_working_bt EP152021 15.0000 -102.800 LO 20 1009 -3 1011 120 60 9 317
2021248N13261 2021 69 EP MM OLAF 2021-09-05 21:00:00 DS 15.3574 -103.093 PROVISIONAL 292 271 P_____________ EP152021 15.3574 -103.093 LO 22 1008 -3 1011 120 55 9 320
2021248N13261 2021 69 EP MM OLAF 2021-09-06 00:00:00 DS 15.7000 -103.400 PROVISIONAL 271 253 O_____________ nhc_working_bt EP152021 15.7000 -103.400 LO 25 1008 -3 1011 120 50 9 313
2021248N13261 2021 69 EP MM OLAF 2021-09-06 03:00:00 DS 15.9650 -103.778 PROVISIONAL 253 243 P_____________ EP152021 15.9650 -103.778 LO 25 1008 -3 1011 120 50 9 303
2021248N13261 2021 69 EP MM OLAF 2021-09-06 06:00:00 DS 16.2000 -104.200 PROVISIONAL 246 232 O_____________ nhc_working_bt EP152021 16.2000 -104.200 LO 25 1008 -3 1011 120 50 10 301
2021248N13261 2021 69 EP MM OLAF 2021-09-06 09:00:00 DS 16.4650 -104.657 PROVISIONAL 238 234 P_____________ EP152021 16.4650 -104.657 LO 25 1008 -3 1011 120 50 10 300
2021248N13261 2021 69 EP MM OLAF 2021-09-06 12:00:00 DS 16.7000 -105.100 PROVISIONAL 246 246 O_____________ nhc_working_bt EP152021 16.7000 -105.100 LO 25 1008 -3 1011 120 50 9 296
2021248N13261 2021 69 EP MM OLAF 2021-09-06 15:00:00 DS 16.8574 -105.480 PROVISIONAL 263 263 P_____________ EP152021 16.8574 -105.480 LO 25 1008 -3 1011 135 55 7 294
2021248N13261 2021 69 EP MM OLAF 2021-09-06 18:00:00 DS 17.0000 -105.800 PROVISIONAL 267 257 O_____________ nhc_working_bt EP152021 17.0000 -105.800 LO 25 1009 -3 1012 150 60 35 7 301
2021248N13261 2021 69 EP MM OLAF 2021-09-06 21:00:00 DS 17.1999 -106.065 PROVISIONAL 262 249 P_____________ EP152021 17.1999 -106.065 LO 25 1009 -3 1012 150 60 6 310
2021248N13261 2021 69 EP MM OLAF 2021-09-07 00:00:00 DS 17.4000 -106.300 PROVISIONAL 256 253 O_____________ nhc_working_bt EP152021 17.4000 -106.300 LO 25 1009 -3 1012 150 60 35 6 308
2021248N13261 2021 69 EP MM OLAF 2021-09-07 03:00:00 DS 17.5650 -106.550 PROVISIONAL 260 260 P_____________ EP152021 17.5650 -106.550 LO 25 1009 -3 1011 150 70 6 302
2021248N13261 2021 69 EP MM OLAF 2021-09-07 06:00:00 DS 17.7000 -106.800 PROVISIONAL 268 268 O_____________ nhc_working_bt EP152021 17.7000 -106.800 LO 25 1009 -3 1011 150 80 35 5 297
2021248N13261 2021 69 EP MM OLAF 2021-09-07 09:00:00 DS 17.8075 -107.050 PROVISIONAL 284 283 P_____________ EP152021 17.8075 -107.050 LO 27 1008 -3 1011 150 80 5 293
2021248N13261 2021 69 EP MM OLAF 2021-09-07 12:00:00 DS 17.9000 -107.300 PROVISIONAL 291 291 O_____________ nhc_working_bt EP152021 17.9000 -107.300 LO 30 1007 -3 1011 150 80 40 6 291
2021248N13261 2021 69 EP MM OLAF 2021-09-07 15:00:00 DS 18.0150 -107.625 PROVISIONAL 307 307 P_____________ EP152021 18.0150 -107.625 LO 30 1007 -3 1011 150 80 5 293
2021248N13261 2021 69 EP MM OLAF 2021-09-07 18:00:00 TS 18.1000 -107.800 PROVISIONAL 318 300 O_____________ nhc_working_bt EP152021 18.1000 -107.800 TD 30 1007 -1 1011 150 80 40 1 25
2021248N13261 2021 69 EP MM OLAF 2021-09-07 21:00:00 TS 18.0951 -107.588 PROVISIONAL 300 276 P_____________ EP152021 18.1001 -107.610 TD 30 1007 -1 1011 150 80 5 90
2021248N13261 2021 69 EP MM OLAF 2021-09-08 00:00:00 TS 18.1000 -107.300 PROVISIONAL 276 252 O_____________ nhc_working_bt EP152021 18.1000 -107.300 TD 30 1007 -1 1011 150 80 40 4 78
2021248N13261 2021 69 EP MM OLAF 2021-09-08 03:00:00 TS 18.1853 -107.142 PROVISIONAL 252 245 P_____________ EP152021 18.1700 -107.090 TD 30 1006 -1 1010 150 80 3 39
2021248N13261 2021 69 EP MM OLAF 2021-09-08 06:00:00 TS 18.3266 -107.108 PROVISIONAL 245 238 O_____________ nhc_working_bt EP152021 18.3000 -107.000 TD 30 1006 -1 1010 150 80 40 3 346
2021248N13261 2021 69 EP MM OLAF 2021-09-08 09:00:00 TS 18.5067 -107.224 PROVISIONAL 240 237 P_____________ EP152021 18.4775 -107.112 TD 32 1005 -1 1010 150 60 5 329
2021248N13261 2021 69 EP MM OLAF 2021-09-08 12:00:00 TS 18.7098 -107.356 PROVISIONAL 246 234 O_____________ nhc_working_bt EP152021 18.7000 -107.300 TS 35 1005 0 40 1010 150 40 45 5 334
2021248N13261 2021 69 EP MM OLAF 2021-09-08 15:00:00 TS 18.9188 -107.440 PROVISIONAL 234 232 P_____________ EP152021 18.9425 -107.415 TS 37 1003 0 50 1010 150 40 5 342
2021248N13261 2021 69 EP MM OLAF 2021-09-08 18:00:00 TS 19.1507 -107.515 PROVISIONAL 227 223 O_____________ nhc_working_bt EP152021 19.2000 -107.500 TS 40 1002 0 60 60 1010 150 40 50 5 343
2021248N13261 2021 69 EP MM OLAF 2021-09-08 21:00:00 TS 19.4213 -107.607 PROVISIONAL 227 222 P_____________ EP152021 19.4500 -107.550 TS 42 1001 0 60 60 1010 150 40 6 342
2021248N13261 2021 69 EP MM OLAF 2021-09-09 00:00:00 TS 19.7000 -107.700 PROVISIONAL 223 216 O_____________ nhc_working_bt EP152021 19.7000 -107.600 TS 45 1000 0 60 30 60 1010 150 40 55 12 45 5 346
2021248N13261 2021 69 EP MM OLAF 2021-09-09 03:00:00 TS 19.9387 -107.743 PROVISIONAL 216 213 P_____________ EP152021 19.9350 -107.685 TS 50 996 0 80 45 60 20 1010 150 37 12 52 5 349
2021248N13261 2021 69 EP MM OLAF 2021-09-09 06:00:00 TS 20.2000 -107.800 PROVISIONAL 220 219 O_____________ nhc_working_bt EP152021 20.2000 -107.800 TS 55 993 0 100 60 40 60 40 1010 150 35 65 12 60 30 60 6 344
2021248N13261 2021 69 EP MM OLAF 2021-09-09 09:00:00 TS 20.5200 -107.920 PROVISIONAL 229 229 P_____________ EP152021 20.5200 -107.928 TS 60 990 0 100 60 40 60 45 1009 150 32 12 60 52 60 8 338
2021248N13261 2021 69 EP MM OLAF 2021-09-09 12:00:00 TS 20.9000 -108.100 PROVISIONAL 255 236 O_____________ nhc_working_bt EP152021 20.9000 -108.100 HU 65 987 1 100 60 40 60 50 40 40 30 1009 150 30 75 12 60 75 60 9 335
2021248N13261 2021 69 EP MM OLAF 2021-09-09 15:00:00 TS 21.3349 -108.320 PROVISIONAL 236 174 P_____________ EP152021 21.3349 -108.320 HU 70 983 1 95 65 45 60 50 45 40 30 1009 150 30 12 60 82 75 10 333
2021248N13261 2021 69 EP MM OLAF 2021-09-09 18:00:00 TS 21.8000 -108.600 PROVISIONAL 174 121 O_____________ nhc_working_bt EP152021 21.8000 -108.600 HU 75 980 1 90 70 50 60 50 50 30 40 30 30 30 1009 150 30 90 12 60 90 30 90 11 330
2021248N13261 2021 69 EP MM OLAF 2021-09-09 21:00:00 TS 22.2686 -108.913 PROVISIONAL 113 52 P_____________ EP152021 22.2648 -108.913 HU 77 978 1 90 80 50 60 45 45 30 40 30 30 30 1008 150 25 12 75 90 45 60 11 324
2021248N13261 2021 69 EP MM OLAF 2021-09-10 00:00:00 TS 22.7000 -109.300 PROVISIONAL 52 0 O_____________ nhc_working_bt EP152021 22.7000 -109.300 HU 80 977 1 90 90 50 60 40 40 30 40 30 30 30 1008 150 20 100 12 90 90 60 30 11 314
2021248N13261 2021 69 EP MM OLAF 2021-09-10 03:00:00 TS 23.0515 -109.800 PROVISIONAL 0 0 P_____________ EP152021 23.0802 -109.792 HU 77 979 1 70 75 60 60 35 40 35 35 25 25 25 1009 135 20 12 90 90 60 45 11 305
2021248N13261 2021 69 EP MM OLAF 2021-09-10 06:00:00 TS 23.3500 -110.300 PROVISIONAL 10 10 O_____________ nhc_working_bt EP152021 23.4000 -110.300 HU 75 981 1 50 60 70 60 30 40 40 30 20 20 20 20 1010 120 20 90 12 90 90 60 60 10 307
2021248N13261 2021 69 EP MM OLAF 2021-09-10 09:00:00 TS 23.6282 -110.636 PROVISIONAL 11 10 P_____________ EP152021 23.6571 -110.693 HU 67 985 1 50 55 65 55 25 35 35 25 15 15 15 15 1010 120 15 12 90 90 60 8 311
2021248N13261 2021 69 EP MM OLAF 2021-09-10 12:00:00 TS 23.9000 -111.000 PROVISIONAL 15 11 O_____________ nhc_working_bt EP152021 23.9000 -111.100 TS 60 990 0 50 50 60 50 20 30 30 20 1010 120 10 80 12 90 90 60 11 304
2021248N13261 2021 69 EP MM OLAF 2021-09-10 15:00:00 TS 24.2267 -111.592 PROVISIONAL 22 15 P_____________ EP152021 24.2227 -111.650 TS 52 993 0 45 50 55 45 10 15 15 10 1010 120 12 12 90 52 12 299
2021248N13261 2021 69 EP MM OLAF 2021-09-10 18:00:00 TS 24.5000 -112.200 PROVISIONAL 24 23 O_____________ nhc_working_bt EP152021 24.5000 -112.200 TS 45 997 0 40 50 50 40 1010 120 15 55 12 90 45 10 294
2021248N13261 2021 69 EP MM OLAF 2021-09-10 21:00:00 TS 24.6597 -112.638 PROVISIONAL 41 41 P_____________ EP152021 24.6597 -112.630 TS 40 1000 0 35 40 40 35 1010 105 15 12 37 8 285
2021248N13261 2021 69 EP MM OLAF 2021-09-11 00:00:00 TS 24.7000 -113.000 PROVISIONAL 81 81 O_____________ nhc_working_bt EP152021 24.7000 -113.000 TS 35 1003 0 30 30 30 30 1010 90 15 45 12 60 30 6 267
2021248N13261 2021 69 EP MM OLAF 2021-09-11 03:00:00 TS 24.6303 -113.350 PROVISIONAL 123 123 P_____________ EP152021 24.6302 -113.353 TS 32 1004 -1 1010 95 22 7 253
2021248N13261 2021 69 EP MM OLAF 2021-09-11 06:00:00 DS 24.5000 -113.700 PROVISIONAL 155 O_____________ nhc_working_bt EP152021 24.5000 -113.700 LO 30 1005 -3 1011 100 30 40 7 248

About IBTrACS Database

This database is a web-friendly format of International Best Track Archive for Climate Stewardship (IBTrACS), a global best track data archive curated by NOAA dating back to 1842.

Updated: 2022-05-13